Rechercher aéroport 
image banner adimage banner adimage banner ad
image banner ad

CA84 - Torrey Pines

Situé à San Diego, United States

ICAO - CA84, IATA -

Données fournies par Airmate  

Information générale

Coordonnées: N32°53'23" W117°14'49"
Élévation : 372 feet MSL.
Variation magnétique : 13° East
Voir autres Aéroports à California

Données opérationnelles

Special qualification required
Heure actuelle UTC:
Heure actuelle locale:
Météo à : KNKX - Miramar Mcas ( 10 km )
METAR: KNKX 251255Z 00000KT 10SM OVC011 19/17 A2997 RMK AO2 SLP144 T01940167 $
TAF: TAF KNKX 2509/2609 VRB05KT 9999 BKN011 QNH2994INS TEMPO 2510/2516 BKN009 FM251730 VRB05KT 9999 FEW015 SCT120 QNH2994INS FM251930 27009KT 9999 SCT120 QNH2989INS FM260230 VRB05KT 9999 SCT015 QNH2989INS TEMPO 2603/2609 BKN011 T18/2513Z T25/2521Z
Voir NOTAMs / SUP AIP / TFR affectant cet aéroport [VIEW]
Fréquences de communication: [VIEW]

Pistes:

Identifiant RWYQFULongueur (ft)Largeur (ft)SurfaceLDA (ft)
09150030ASPH
27150030ASPH

Coordonnées de l'aéroport

Adresse: San Diego United States

Vue satellite de CA84